Time;durP1;ratioP1;P1;durP2;ratioP2;P2;SDS_P1;SDS_P2;PMS_P1;PMS_P2;Temp;Humidity;BMP_temperature;BMP_pressure;BME280_temperature;BME280_humidity;BME280_pressure;Samples;Min_cycle;Max_cycle;Signal;HPM_P1;HPM_P2
2021/01/11 07:49:55;;;;;;;85.15;47.63;;;2.20;99.90;;;;;;12950523;22;20020;-92
2021/01/11 07:55:07;;;;;;;84.50;46.58;;;2.20;99.90;;;;;;12827159;23;20016;-96
2021/01/11 08:00:11;;;;;;;104.20;53.30;;;2.10;99.90;;;;;;12854642;23;20374;-94
2021/01/11 08:05:24;;;;;;;72.35;41.15;;;2.10;99.90;;;;;;12877161;23;20048;-95
2021/01/11 08:10:26;;;;;;;83.97;45.92;;;2.10;99.90;;;;;;12852299;23;20071;-95
2021/01/11 08:15:28;;;;;;;77.38;40.90;;;2.10;99.90;;;;;;12878211;23;20017;-95
2021/01/11 08:20:30;;;;;;;74.90;42.13;;;2.20;99.90;;;;;;12853496;23;20074;-95
2021/01/11 08:25:33;;;;;;;74.05;40.85;;;2.10;99.90;;;;;;12851302;23;20030;-95
2021/01/11 08:30:35;;;;;;;61.75;37.95;;;2.20;99.90;;;;;;12880637;23;20468;-95
2021/01/11 08:35:36;;;;;;;77.82;40.90;;;2.30;99.90;;;;;;12878484;23;20020;-95
2021/01/11 08:40:38;;;;;;;;;;;2.30;99.90;;;;;;12851062;23;20029;-94
2021/01/11 08:45:41;;;;;;;76.87;42.63;;;2.20;99.90;;;;;;12875016;23;20328;-94
2021/01/11 08:50:52;;;;;;;75.82;39.30;;;2.20;99.90;;;;;;12845698;22;20442;-94
2021/01/11 08:56:01;;;;;;;76.00;39.63;;;2.20;99.90;;;;;;12838084;23;20075;-96
2021/01/11 09:01:19;;;;;;;72.38;41.55;;;2.20;99.90;;;;;;12818394;23;20028;-95
2021/01/11 09:06:45;;;;;;;70.50;39.28;;;2.20;99.90;;;;;;12818221;23;20024;-95
2021/01/11 09:11:48;;;;;;;73.93;43.08;;;2.30;99.90;;;;;;12819068;23;20020;-95
2021/01/11 09:17:05;;;;;;;82.90;44.03;;;2.30;99.90;;;;;;12816548;23;20043;-94
2021/01/11 09:22:15;;;;;;;76.82;43.90;;;2.40;99.90;;;;;;12795484;23;20021;-96
2021/01/11 09:27:17;;;;;;;70.18;42.28;;;2.40;99.90;;;;;;12817994;23;20025;-95
2021/01/11 09:32:19;;;;;;;70.32;43.42;;;2.50;99.90;;;;;;12816294;23;20021;-95
2021/01/11 09:37:21;;;;;;;71.45;41.45;;;2.50;99.90;;;;;;12792719;23;20016;-95
2021/01/11 09:42:22;;;;;;;;;;;2.50;99.90;;;;;;12816494;23;20024;-96
2021/01/11 09:47:27;;;;;;;73.28;43.13;;;2.50;99.90;;;;;;12819548;23;20210;-95
2021/01/11 09:52:30;;;;;;;61.38;35.85;;;2.60;99.90;;;;;;12816999;23;20112;-95
2021/01/11 09:57:36;;;;;;;72.13;42.25;;;2.70;99.90;;;;;;12793371;23;20430;-96
2021/01/11 10:02:48;;;;;;;63.15;38.55;;;2.70;99.90;;;;;;12769267;23;20020;-96
2021/01/11 10:07:51;;;;;;;53.70;32.33;;;2.70;99.90;;;;;;12816317;23;20048;-95
2021/01/11 10:12:54;;;;;;;61.35;37.22;;;2.70;99.90;;;;;;12815807;23;20017;-96
2021/01/11 10:17:55;;;;;;;61.75;35.20;;;2.80;99.90;;;;;;12791361;23;20024;-96
2021/01/11 10:22:57;;;;;;;68.75;39.22;;;2.80;99.90;;;;;;12791047;23;20031;-95
2021/01/11 10:27:59;;;;;;;62.15;37.08;;;2.80;99.90;;;;;;12792581;23;20020;-95
2021/01/11 10:45:20;;;;;;;58.22;36.05;;;2.90;99.90;;;;;;12949240;22;20032;-92
2021/01/11 10:50:31;;;;;;;57.67;35.58;;;3.00;99.90;;;;;;12856385;23;20016;-95
2021/01/11 10:55:36;;;;;;;61.10;36.90;;;3.00;99.90;;;;;;12857736;23;20094;-96
2021/01/11 11:00:47;;;;;;;57.50;37.25;;;3.00;99.90;;;;;;12883854;23;20778;-96
2021/01/11 11:05:50;;;;;;;58.95;34.95;;;3.00;99.90;;;;;;12828195;23;20031;-96
2021/01/11 11:10:53;;;;;;;52.63;33.15;;;3.00;99.90;;;;;;12831591;23;20026;-95
2021/01/11 11:15:54;;;;;;;;;;;3.00;99.90;;;;;;12856204;23;20020;-95
2021/01/11 11:20:56;;;;;;;50.20;32.65;;;3.00;99.90;;;;;;12878811;23;19923;-96
2021/01/11 11:25:58;;;;;;;53.60;32.70;;;3.10;99.90;;;;;;12828815;23;20027;-96
2021/01/11 11:31:00;;;;;;;47.30;31.55;;;3.10;99.90;;;;;;12853175;23;20016;-96
2021/01/11 11:36:05;;;;;;;48.80;30.10;;;3.10;99.90;;;;;;12852974;23;20027;-96
2021/01/11 11:41:09;;;;;;;49.45;31.10;;;3.10;99.90;;;;;;12878952;23;20083;-96
2021/01/11 11:46:13;;;;;;;51.30;31.48;;;3.20;99.90;;;;;;12878135;23;20050;-95
2021/01/11 11:51:20;;;;;;;44.45;28.95;;;3.20;99.90;;;;;;12876494;23;20016;-96
2021/01/11 11:56:22;;;;;;;41.10;28.58;;;3.30;99.90;;;;;;12853050;23;20016;-95
2021/01/11 12:01:24;;;;;;;46.80;27.20;;;3.40;99.90;;;;;;12876807;23;20021;-96
2021/01/11 12:06:39;;;;;;;42.72;29.10;;;3.40;99.90;;;;;;12877744;23;20020;-96
2021/01/11 12:11:50;;;;;;;41.08;26.88;;;3.40;99.90;;;;;;12852072;23;20099;-96
2021/01/11 12:16:52;;;;;;;53.28;31.55;;;3.40;99.90;;;;;;12877418;23;20030;-96
2021/01/11 12:21:56;;;;;;;38.78;26.40;;;3.50;99.90;;;;;;12877978;23;20024;-94
2021/01/11 12:26:57;;;;;;;45.47;28.13;;;3.50;99.90;;;;;;12852687;23;20032;-96
2021/01/11 12:32:04;;;;;;;;;;;3.60;99.90;;;;;;12853271;23;20044;-96
2021/01/11 12:37:07;;;;;;;40.00;26.40;;;3.70;99.90;;;;;;12880187;23;19982;-94
2021/01/11 12:42:10;;;;;;;40.53;27.85;;;3.70;99.90;;;;;;12881359;23;20020;-95
2021/01/11 12:47:13;;;;;;;42.90;27.33;;;3.60;99.90;;;;;;12888848;23;20526;-95
2021/01/11 12:52:15;;;;;;;38.10;25.77;;;3.70;99.90;;;;;;12894489;23;20017;-94
2021/01/11 12:57:17;;;;;;;38.10;25.13;;;3.80;99.90;;;;;;12859199;23;20020;-95
2021/01/11 13:02:18;;;;;;;36.55;24.02;;;3.70;99.90;;;;;;12880995;23;20023;-92
2021/01/11 13:07:20;;;;;;;;;;;3.80;99.90;;;;;;12880878;23;20028;-94
2021/01/11 13:12:21;;;;;;;34.10;24.42;;;3.80;99.90;;;;;;12879555;23;20317;-93
2021/01/11 13:17:23;;;;;;;38.10;24.52;;;3.80;99.90;;;;;;12854277;23;20386;-95
2021/01/11 13:22:26;;;;;;;35.55;23.73;;;3.80;99.90;;;;;;12855713;23;20099;-94
2021/01/11 13:27:27;;;;;;;29.85;22.08;;;3.90;99.90;;;;;;12880144;23;20024;-94
2021/01/11 13:32:29;;;;;;;31.40;22.10;;;3.90;99.90;;;;;;12855968;23;20024;-93
2021/01/11 13:37:35;;;;;;;;;;;3.90;99.90;;;;;;12830893;23;20020;-93
2021/01/11 13:42:37;;;;;;;33.22;22.77;;;4.00;99.90;;;;;;12880439;23;19922;-96
2021/01/11 13:47:48;;;;;;;29.90;20.15;;;3.90;99.90;;;;;;12877610;23;20020;-96
2021/01/11 13:52:49;;;;;;;38.47;23.02;;;3.90;99.90;;;;;;12831409;23;20394;-96
2021/01/11 13:57:51;;;;;;;32.00;21.27;;;3.90;99.90;;;;;;12854741;23;20071;-96
2021/01/11 14:02:53;;;;;;;27.95;19.65;;;3.90;99.90;;;;;;12853527;23;20330;-96
2021/01/11 14:07:55;;;;;;;;;;;4.00;99.90;;;;;;12854074;23;20075;-96
2021/01/11 14:12:57;;;;;;;26.92;18.55;;;4.00;99.90;;;;;;12854045;23;20285;-96
2021/01/11 14:18:02;;;;;;;;;;;4.00;99.90;;;;;;12878416;23;20023;-96
2021/01/11 14:23:06;;;;;;;24.75;17.15;;;4.00;99.90;;;;;;12881138;23;19919;-96
2021/01/11 14:28:08;;;;;;;23.95;17.83;;;4.10;99.90;;;;;;12829720;23;20349;-96
2021/01/11 14:33:09;;;;;;;23.75;18.15;;;4.10;99.90;;;;;;12828744;23;20027;-96
2021/01/11 14:38:11;;;;;;;;;;;4.10;99.90;;;;;;12879225;23;20079;-96
2021/01/11 14:43:12;;;;;;;30.63;18.00;;;4.10;99.90;;;;;;12877873;23;19915;-94
2021/01/11 14:48:15;;;;;;;23.52;17.48;;;4.20;99.90;;;;;;12880370;23;20078;-96
2021/01/11 14:53:17;;;;;;;25.50;17.50;;;4.30;99.90;;;;;;12883487;23;20040;-95
2021/01/11 14:58:19;;;;;;;24.80;18.55;;;4.20;99.90;;;;;;12881034;23;20345;-96
2021/01/11 15:03:21;;;;;;;24.40;17.98;;;4.20;99.90;;;;;;12879932;23;20028;-96
2021/01/11 15:08:26;;;;;;;;;;;4.20;99.90;;;;;;12856600;23;20132;-96
2021/01/11 15:13:27;;;;;;;25.08;17.52;;;4.20;99.90;;;;;;12878114;23;19943;-96
2021/01/11 15:18:29;;;;;;;24.80;18.25;;;4.20;99.90;;;;;;12876906;23;20020;-96
2021/01/11 15:23:30;;;;;;;18.42;15.75;;;4.30;99.90;;;;;;12876576;23;20028;-96
2021/01/11 15:28:32;;;;;;;20.52;15.95;;;4.30;99.90;;;;;;12851736;23;20340;-96
2021/01/11 15:33:57;;;;;;;22.98;15.80;;;4.30;99.90;;;;;;12854435;23;20026;-94
2021/01/11 15:39:02;;;;;;;23.63;17.45;;;4.30;99.90;;;;;;12877468;23;20024;-94
2021/01/11 15:44:04;;;;;;;23.35;16.52;;;4.30;99.90;;;;;;12877426;23;20031;-95
2021/01/11 15:49:05;;;;;;;;;;;4.30;99.90;;;;;;12877781;23;20024;-95
2021/01/11 15:54:08;;;;;;;21.60;15.25;;;4.30;99.90;;;;;;12926717;23;20281;-94
2021/01/11 15:59:10;;;;;;;21.48;16.73;;;4.40;99.90;;;;;;12877811;23;20169;-94
2021/01/11 16:04:14;;;;;;;;;;;4.50;99.90;;;;;;12877293;23;20031;-94
2021/01/11 16:09:16;;;;;;;24.00;16.75;;;4.40;99.90;;;;;;12877563;23;20214;-94
2021/01/11 16:14:17;;;;;;;25.38;19.58;;;4.50;99.90;;;;;;12878210;23;20020;-96
2021/01/11 16:19:19;;;;;;;;;;;4.50;99.90;;;;;;12885216;23;20024;-96
2021/01/11 16:24:22;;;;;;;27.02;17.30;;;4.50;99.90;;;;;;12861888;23;19943;-95
2021/01/11 16:29:24;;;;;;;25.65;18.98;;;4.50;99.90;;;;;;12879533;23;20016;-94
2021/01/11 16:34:26;;;;;;;26.25;19.60;;;4.60;99.90;;;;;;12876231;22;20024;-94
2021/01/11 16:39:28;;;;;;;25.23;19.02;;;4.60;99.90;;;;;;12876371;23;20396;-94
2021/01/11 16:44:30;;;;;;;30.10;22.17;;;4.60;99.90;;;;;;12875151;23;20083;-94
2021/01/11 16:55:52;;;;;;;26.83;21.33;;;4.50;99.90;;;;;;12909124;23;20115;-94
2021/01/11 17:00:55;;;;;;;32.30;23.92;;;4.50;99.90;;;;;;12880699;23;20491;-94
2021/01/11 17:05:56;;;;;;;32.42;25.05;;;4.60;99.90;;;;;;12837113;23;20024;-94
2021/01/11 17:10:58;;;;;;;;;;;4.50;99.90;;;;;;12880031;23;20020;-93
2021/01/11 17:16:00;;;;;;;37.80;25.75;;;4.50;99.90;;;;;;12879583;23;19916;-93
2021/01/11 17:21:05;;;;;;;35.30;25.45;;;4.50;99.90;;;;;;12878909;23;20357;-94
2021/01/11 17:26:07;;;;;;;38.03;26.02;;;4.50;99.90;;;;;;12856363;23;20044;-93
2021/01/11 17:31:08;;;;;;;;;;;4.60;99.90;;;;;;12853744;22;20496;-93
2021/01/11 17:36:21;;;;;;;35.30;25.95;;;4.50;99.90;;;;;;12854315;23;19919;-93
2021/01/11 17:41:23;;;;;;;;;;;4.60;99.90;;;;;;12880780;23;20016;-93
2021/01/11 17:46:25;;;;;;;37.05;25.38;;;4.60;99.90;;;;;;12879028;23;19915;-93
2021/01/11 17:51:27;;;;;;;37.95;27.80;;;4.60;99.90;;;;;;12854170;23;20016;-94
2021/01/11 17:56:28;;;;;;;41.83;28.17;;;4.60;99.90;;;;;;12940991;22;20322;-93
2021/01/11 18:01:30;;;;;;;38.78;26.83;;;4.60;99.90;;;;;;12892121;22;20074;-93
2021/01/11 18:06:32;;;;;;;42.67;29.83;;;4.60;99.90;;;;;;12940704;22;20103;-94
2021/01/11 18:11:38;;;;;;;43.97;29.95;;;4.60;99.90;;;;;;12941473;22;20050;-92
2021/01/11 18:16:41;;;;;;;46.20;30.23;;;4.60;99.90;;;;;;12941629;22;20031;-93
2021/01/11 18:28:29;;;;;;;45.28;29.58;;;4.70;99.90;;;;;;12742579;22;20017;-94
2021/01/11 18:40:40;;;;;;;37.42;28.83;;;4.80;99.90;;;;;;12895587;22;20012;-93
2021/01/11 18:45:45;;;;;;;37.03;23.55;;;4.80;99.90;;;;;;13004447;22;20030;-93
2021/01/11 18:50:46;;;;;;;36.95;26.50;;;4.80;99.90;;;;;;13004663;22;20015;-94
2021/01/11 18:55:49;;;;;;;38.15;26.98;;;4.80;99.90;;;;;;13004311;22;20479;-93
2021/01/11 19:00:51;;;;;;;32.33;22.92;;;4.80;99.90;;;;;;12985807;22;20023;-93
2021/01/11 19:05:53;;;;;;;38.63;27.17;;;4.80;99.90;;;;;;13008606;22;20019;-94
2021/01/11 19:10:55;;;;;;;33.42;24.33;;;4.90;99.90;;;;;;13004095;22;20094;-93
2021/01/11 19:15:57;;;;;;;32.25;23.35;;;4.90;99.90;;;;;;12979016;22;20098;-93
2021/01/11 19:20:59;;;;;;;;;;;5.00;99.90;;;;;;12979722;22;20340;-94
2021/01/11 19:26:01;;;;;;;35.05;24.55;;;5.00;99.90;;;;;;13004146;22;19916;-93
2021/01/11 19:31:03;;;;;;;36.38;26.27;;;5.10;99.90;;;;;;13003255;22;20045;-93
2021/01/11 19:36:05;;;;;;;34.47;23.20;;;5.10;99.90;;;;;;13002991;22;20099;-93
2021/01/11 19:41:07;;;;;;;30.77;23.15;;;5.30;99.90;;;;;;12953716;22;20023;-94
2021/01/11 19:46:10;;;;;;;31.92;22.42;;;5.30;99.90;;;;;;13002417;22;20019;-94
2021/01/11 19:51:14;;;;;;;29.65;21.27;;;5.20;99.90;;;;;;13027605;22;20023;-94
2021/01/11 19:56:25;;;;;;;33.67;21.90;;;5.30;99.90;;;;;;13002185;22;20045;-93
2021/01/11 20:01:26;;;;;;;26.50;20.17;;;5.40;99.90;;;;;;12979084;22;20069;-93
2021/01/11 20:06:28;;;;;;;32.60;22.77;;;5.30;99.90;;;;;;13003047;22;20019;-93
2021/01/11 20:11:30;;;;;;;36.42;25.52;;;5.20;99.90;;;;;;13002807;22;20033;-93
2021/01/11 20:16:31;;;;;;;33.97;25.08;;;5.30;99.90;;;;;;13002020;22;20046;-93
2021/01/11 20:21:41;;;;;;;42.35;25.80;;;5.20;99.90;;;;;;12977763;22;20027;-93
2021/01/11 20:26:47;;;;;;;38.85;27.67;;;5.10;99.90;;;;;;13002534;22;20023;-93
2021/01/11 20:31:48;;;;;;;41.08;29.02;;;5.10;99.90;;;;;;13003006;22;20015;-93
2021/01/11 20:36:50;;;;;;;44.97;33.33;;;5.10;99.90;;;;;;13004401;22;20037;-93
2021/01/11 20:41:52;;;;;;;46.72;28.20;;;5.10;99.90;;;;;;12977288;22;20039;-93
2021/01/11 20:46:55;;;;;;;45.10;30.17;;;5.10;99.90;;;;;;13002969;22;20440;-93
2021/01/11 20:51:57;;;;;;;41.90;30.35;;;5.10;99.90;;;;;;13002776;22;20015;-93
2021/01/11 20:56:59;;;;;;;42.55;31.05;;;5.00;99.90;;;;;;12981758;22;20332;-93
2021/01/11 21:02:00;;;;;;;48.75;31.77;;;5.10;99.90;;;;;;12984331;22;20023;-94
2021/01/11 21:07:02;;;;;;;;;;;5.20;99.90;;;;;;12963218;22;20019;-94
2021/01/11 21:12:05;;;;;;;48.83;32.53;;;5.10;99.90;;;;;;13009785;22;20307;-93
2021/01/11 21:17:08;;;;;;;45.92;33.35;;;5.20;99.90;;;;;;13007726;22;20019;-94
2021/01/11 21:22:11;;;;;;;49.65;32.40;;;5.20;99.90;;;;;;12982611;22;20080;-94
2021/01/11 21:27:13;;;;;;;53.72;37.58;;;5.20;99.90;;;;;;12981210;22;20023;-93
2021/01/11 21:32:15;;;;;;;49.50;34.20;;;5.20;99.90;;;;;;13005882;22;20019;-94
2021/01/11 21:37:17;;;;;;;;;;;5.20;99.90;;;;;;12982602;22;20022;-94
2021/01/11 21:42:18;;;;;;;37.97;27.48;;;5.20;99.90;;;;;;13005896;22;19914;-93
2021/01/11 21:47:20;;;;;;;47.90;30.70;;;5.30;99.90;;;;;;12980288;22;20518;-94
2021/01/11 21:52:21;;;;;;;46.22;32.38;;;5.30;99.90;;;;;;12980948;22;20023;-93
2021/01/11 21:57:26;;;;;;;42.67;33.00;;;5.20;99.90;;;;;;13006226;22;20023;-94
2021/01/11 22:02:29;;;;;;;47.72;34.92;;;5.30;99.90;;;;;;13004441;22;20085;-93
2021/01/11 22:07:31;;;;;;;45.00;29.55;;;5.30;99.90;;;;;;12979762;22;20045;-94
2021/01/11 22:12:33;;;;;;;40.72;28.70;;;5.30;99.90;;;;;;13005949;22;20016;-94
2021/01/11 22:17:34;;;;;;;48.03;35.28;;;5.30;99.90;;;;;;13005925;22;20069;-93
2021/01/11 22:22:36;;;;;;;;;;;5.30;99.90;;;;;;13004928;22;20037;-94
2021/01/11 22:27:38;;;;;;;48.53;35.30;;;5.40;99.90;;;;;;12979276;22;19922;-93
2021/01/11 22:32:43;;;;;;;57.65;36.22;;;5.40;99.90;;;;;;12978554;22;20356;-94
2021/01/11 22:37:48;;;;;;;40.20;30.17;;;5.40;99.90;;;;;;13006304;22;20015;-94
2021/01/11 22:42:51;;;;;;;45.05;30.88;;;5.40;99.90;;;;;;13004264;22;20023;-93
2021/01/11 23:39:37;;;;;;;;;;;5.80;99.90;;;;;;13090231;22;20023;-94
2021/01/11 23:44:38;;;;;;;40.95;29.15;;;5.80;99.90;;;;;;13002766;22;20239;-94
2021/01/11 23:49:50;;;;;;;40.00;29.40;;;5.80;99.90;;;;;;13004316;22;20336;-94
2021/01/11 23:54:52;;;;;;;36.28;25.10;;;5.80;99.90;;;;;;13003105;22;20019;-94
2021/01/11 23:59:54;;;;;;;26.98;22.75;;;5.90;99.90;;;;;;12954498;22;20026;-94
